Time;durP1;ratioP1;P1;durP2;ratioP2;P2;SDS_P1;SDS_P2;PMS_P1;PMS_P2;Temp;Humidity;BMP_temperature;BMP_pressure;BME280_temperature;BME280_humidity;BME280_pressure;Samples;Min_cycle;Max_cycle;Signal;HPM_P1;HPM_P2
2022/12/20 00:00:13;;;;;;;20.98;12.90;;;;;;;-0.84;57.11;95576.75;4988352;28;20103;-77
2022/12/20 00:02:38;;;;;;;17.17;10.88;;;;;;;-0.33;55.98;95583.00;4992901;28;20030;-76
2022/12/20 00:05:04;;;;;;;18.27;11.35;;;;;;;-0.74;56.60;95590.22;4989029;28;20062;-77
2022/12/20 00:07:29;;;;;;;18.80;11.50;;;;;;;-0.18;55.46;95606.31;4987087;28;20029;-77
2022/12/20 00:09:55;;;;;;;16.63;10.98;;;;;;;-0.03;54.86;95595.63;4988098;28;20382;-76
2022/12/20 00:12:20;;;;;;;17.67;10.70;;;;;;;0.22;54.29;95604.44;4987183;28;20017;-76
2022/12/20 00:14:46;;;;;;;19.55;10.85;;;;;;;0.22;54.03;95604.44;5006205;28;20520;-76
2022/12/20 00:17:11;;;;;;;16.38;10.43;;;;;;;0.28;53.73;95598.41;4990704;28;20052;-76
2022/12/20 00:19:36;;;;;;;15.88;10.65;;;;;;;0.34;53.29;95608.06;4990731;28;20046;-75
2022/12/20 00:22:02;;;;;;;15.23;10.40;;;;;;;0.27;52.97;95587.13;4992593;28;20389;-76
2022/12/20 00:24:27;;;;;;;16.13;9.77;;;;;;;0.43;52.83;95606.00;5005698;28;20505;-77
2022/12/20 00:26:53;;;;;;;15.55;11.07;;;;;;;0.44;52.53;95603.19;4992682;28;20472;-77
2022/12/20 00:29:18;;;;;;;17.70;11.60;;;;;;;0.47;52.69;95605.38;4987031;28;20053;-77
2022/12/20 00:31:43;;;;;;;14.15;9.77;;;;;;;0.49;52.27;95602.56;4992879;28;20578;-77
2022/12/20 00:34:09;;;;;;;18.88;10.75;;;;;;;0.53;52.09;95607.19;4985070;28;20080;-76
2022/12/20 00:36:34;;;;;;;19.13;10.93;;;;;;;0.52;52.28;95608.19;4991218;28;20526;-76
2022/12/20 00:39:00;;;;;;;16.83;10.05;;;;;;;0.56;52.25;95614.63;4992762;28;20057;-78
2022/12/20 00:41:28;;;;;;;14.95;10.23;;;;;;;0.59;51.86;95610.81;4992746;28;20038;-77
2022/12/20 00:43:54;;;;;;;16.80;10.80;;;;;;;0.15;52.66;95603.69;4992176;28;20030;-77
2022/12/20 00:46:22;;;;;;;14.80;10.20;;;;;;;0.09;52.54;95573.91;4991114;28;20034;-77
2022/12/20 00:48:48;;;;;;;20.02;11.00;;;;;;;0.06;52.57;95589.97;4996556;28;20188;-76
2022/12/20 00:51:19;;;;;;;19.50;11.18;;;;;;;0.12;52.67;95580.50;4992634;28;20391;-76
2022/12/20 00:53:45;;;;;;;17.35;12.00;;;;;;;-0.43;53.65;95611.34;4995168;28;20116;-79
2022/12/20 00:56:12;;;;;;;15.80;10.07;;;;;;;-0.31;53.80;95594.06;4994722;28;20125;-75
2022/12/20 00:58:39;;;;;;;14.80;10.15;;;;;;;-0.50;53.52;95584.41;4994679;28;20045;-78
2022/12/20 01:01:13;;;;;;;15.85;11.45;;;;;;;-0.48;54.00;95592.84;4993806;28;20176;-77
2022/12/20 01:03:38;;;;;;;15.02;10.23;;;;;;;-0.10;53.15;95603.50;4994675;28;20044;-76
2022/12/20 01:06:04;;;;;;;20.20;11.95;;;;;;;-0.05;52.78;95592.44;4994109;28;20505;-77
2022/12/20 01:08:32;;;;;;;18.33;9.95;;;;;;;0.01;52.81;95602.09;4995010;28;20037;-76
2022/12/20 01:11:15;;;;;;;15.65;9.93;;;;;;;-0.12;52.60;95611.56;4992853;28;20045;-76
2022/12/20 01:13:44;;;;;;;14.18;9.30;;;;;;;-0.10;52.63;95586.00;4992789;28;20058;-76
2022/12/20 01:16:22;;;;;;;16.00;9.15;;;;;;;0.01;52.50;95599.47;4991832;28;20528;-76
2022/12/20 01:18:48;;;;;;;18.55;10.25;;;;;;;0.05;52.45;95582.34;4993582;28;20048;-77
2022/12/20 01:21:16;;;;;;;16.73;10.35;;;;;;;0.03;52.24;95584.38;4991800;28;20026;-76
2022/12/20 01:23:42;;;;;;;15.95;9.45;;;;;;;-0.09;52.67;95571.91;4996258;28;20030;-76
2022/12/20 01:26:10;;;;;;;16.52;9.95;;;;;;;-0.45;53.27;95581.19;4992015;28;20030;-76
2022/12/20 01:28:38;;;;;;;18.23;9.82;;;;;;;-0.66;53.61;95571.72;4993838;28;20044;-76
2022/12/20 01:31:07;;;;;;;16.45;10.50;;;;;;;-1.13;55.44;95583.94;4993793;28;20029;-76
2022/12/20 01:33:33;;;;;;;19.67;11.57;;;;;;;-1.30;55.97;95581.84;4995013;28;20041;-76
2022/12/20 01:36:04;;;;;;;15.57;10.55;;;;;;;-1.60;56.42;95565.69;4991238;28;20524;-76
2022/12/20 01:38:30;;;;;;;16.00;10.35;;;;;;;-1.58;56.58;95566.31;4993195;28;20555;-76
2022/12/20 01:40:56;;;;;;;17.30;11.13;;;;;;;-1.44;55.94;95562.75;4992431;28;20601;-76
2022/12/20 01:43:24;;;;;;;16.77;10.20;;;;;;;-1.23;55.56;95567.84;4993740;28;20073;-77
2022/12/20 01:45:50;;;;;;;18.92;11.45;;;;;;;-1.59;56.23;95577.72;4992132;28;20034;-75
2022/12/20 01:48:24;;;;;;;18.20;11.20;;;;;;;-1.95;57.25;95563.09;4987517;28;20065;-76
2022/12/20 01:50:51;;;;;;;20.23;12.13;;;;;;;-1.48;56.38;95544.06;4992572;28;20021;-76
2022/12/20 01:53:20;;;;;;;20.50;10.98;;;;;;;-1.72;55.91;95530.72;4994894;28;20452;-76
2022/12/20 01:55:46;;;;;;;19.90;11.43;;;;;;;-1.45;56.25;95574.19;4993944;28;20505;-76
2022/12/20 01:58:13;;;;;;;18.85;11.10;;;;;;;-1.25;55.40;95551.56;4994509;28;20029;-75
2022/12/20 02:00:38;;;;;;;18.27;10.88;;;;;;;-1.26;55.61;95557.75;4992372;28;20065;-77
2022/12/20 02:03:07;;;;;;;19.60;10.88;;;;;;;-1.40;55.44;95540.47;4995041;28;20024;-76
2022/12/20 02:05:38;;;;;;;21.27;11.10;;;;;;;-2.08;57.61;95562.25;4991639;28;20042;-75
2022/12/20 02:08:05;;;;;;;17.88;11.07;;;;;;;-1.78;57.16;95547.97;4992386;28;20519;-76
2022/12/20 02:10:39;;;;;;;14.98;9.73;;;;;;;-1.68;56.05;95563.25;4991069;28;20084;-76
2022/12/20 02:13:14;;;;;;;16.87;10.60;;;;;;;-1.98;56.55;95558.28;4993845;28;20033;-76
2022/12/20 02:15:55;;;;;;;18.00;11.00;;;;;;;-1.84;56.49;95559.97;5006396;28;20053;-77
2022/12/20 02:18:57;;;;;;;16.02;10.05;;;;;;;-2.53;56.75;95553.13;4992384;28;20033;-77
2022/12/20 02:21:29;;;;;;;16.13;11.07;;;;;;;-2.02;56.79;95562.28;4987452;28;20405;-76
2022/12/20 02:24:35;;;;;;;21.58;12.82;;;;;;;-2.17;56.27;95548.56;4994263;28;20040;-76
2022/12/20 02:27:29;;;;;;;25.35;14.90;;;;;;;-1.69;56.15;95556.41;4941709;28;20148;-77
2022/12/20 02:30:00;;;;;;;21.25;13.30;;;;;;;-1.27;54.85;95563.19;4991289;28;20516;-76
2022/12/20 02:32:51;;;;;;;15.75;10.52;;;;;;;-0.97;54.14;95546.16;4991770;28;20036;-76
2022/12/20 02:35:23;;;;;;;19.10;11.32;;;;;;;-0.84;53.50;95545.41;4993731;28;20851;-77
2022/12/20 02:37:51;;;;;;;18.83;12.30;;;;;;;-1.99;55.16;95538.41;4991961;28;20511;-76
2022/12/20 02:40:21;;;;;;;17.70;11.25;;;;;;;-1.64;55.16;95559.25;4993271;28;20128;-75
2022/12/20 02:42:50;;;;;;;20.83;11.98;;;;;;;-1.22;54.68;95548.56;4990270;28;20983;-76
2022/12/20 02:45:19;;;;;;;18.42;9.90;;;;;;;-1.22;53.43;95537.31;4991652;28;20029;-75
2022/12/20 02:47:47;;;;;;;21.45;11.30;;;;;;;-1.04;54.08;95542.75;4991736;28;20076;-76
2022/12/20 02:50:16;;;;;;;21.38;10.70;;;;;;;-1.68;53.69;95458.91;5007862;28;20030;-76
2022/12/20 02:52:42;;;;;;;19.42;10.98;;;;;;;-0.85;53.14;95522.88;4992546;28;20139;-75
2022/12/20 02:55:08;;;;;;;17.85;10.68;;;;;;;-0.66;52.72;95533.34;4992574;28;20492;-75
2022/12/20 02:57:42;;;;;;;14.70;10.27;;;;;;;-0.54;52.31;95542.19;4993123;28;20087;-75
2022/12/20 03:00:12;;;;;;;15.07;9.77;;;;;;;-0.47;52.03;95542.19;4993000;28;20424;-76
2022/12/20 03:05:25;;;;;;;15.18;9.85;;;;;;;-0.47;51.52;95525.69;4992963;28;20053;-74
2022/12/20 03:07:52;;;;;;;12.93;8.75;;;;;;;-0.33;51.08;95535.13;4991052;28;20044;-77
2022/12/20 03:10:18;;;;;;;14.70;9.15;;;;;;;-0.36;50.98;95532.91;4992871;28;20531;-76
2022/12/20 03:12:44;;;;;;;11.63;8.23;;;;;;;-0.36;50.71;95525.88;4990254;28;20095;-79
2022/12/20 03:15:10;;;;;;;14.02;8.98;;;;;;;-0.42;50.07;95508.38;4992005;28;20050;-74
2022/12/20 03:17:35;;;;;;;12.80;8.20;;;;;;;-0.37;49.96;95513.81;4992105;28;20026;-75
2022/12/20 03:20:01;;;;;;;12.60;9.43;;;;;;;-0.53;49.64;95501.16;4987536;28;20053;-78
2022/12/20 03:22:27;;;;;;;16.25;9.00;;;;;;;-0.62;50.17;95492.72;4991112;28;20496;-75
2022/12/20 03:24:52;;;;;;;16.55;10.27;;;;;;;-0.46;50.14;95514.22;4993155;28;20053;-77
2022/12/20 03:27:18;;;;;;;15.43;9.88;;;;;;;-0.46;49.97;95517.66;4990041;28;20045;-76
2022/12/20 03:29:44;;;;;;;15.13;9.90;;;;;;;-0.55;50.03;95511.03;4993792;28;20578;-77
2022/12/20 03:32:10;;;;;;;12.50;9.38;;;;;;;-0.45;49.96;95519.25;4991482;28;20512;-77
2022/12/20 03:34:36;;;;;;;17.55;10.02;;;;;;;-0.55;49.68;95508.41;4990933;28;20310;-77
2022/12/20 03:37:01;;;;;;;15.95;9.73;;;;;;;-0.50;49.73;95526.91;4992282;28;20060;-78
2022/12/20 03:39:26;;;;;;;15.18;9.27;;;;;;;-0.51;49.90;95526.09;4991986;28;20041;-77
2022/12/20 03:41:52;;;;;;;16.33;9.73;;;;;;;-0.55;50.20;95503.19;4992010;28;20037;-76
2022/12/20 03:44:17;;;;;;;15.27;9.30;;;;;;;-0.60;50.00;95505.59;4990366;28;20117;-77
2022/12/20 03:46:42;;;;;;;14.38;9.60;;;;;;;-0.53;49.98;95511.63;4991473;28;20040;-77
2022/12/20 03:49:08;;;;;;;13.75;9.30;;;;;;;-0.50;50.04;95521.69;4989570;28;20556;-78
2022/12/20 03:51:33;;;;;;;17.48;9.95;;;;;;;-0.55;50.07;95524.09;4991364;28;20034;-77
2022/12/20 03:53:59;;;;;;;16.95;10.23;;;;;;;-0.79;50.36;95490.75;4988509;28;20453;-78
2022/12/20 03:56:24;;;;;;;16.90;9.70;;;;;;;-0.72;50.16;95494.13;4991884;28;20073;-78
2022/12/20 03:58:49;;;;;;;16.35;10.50;;;;;;;-0.75;50.16;95510.22;4991268;28;20117;-76
2022/12/20 04:01:27;;;;;;;17.25;10.35;;;;;;;-0.79;50.20;95522.09;4991176;28;20488;-76
2022/12/20 04:03:53;;;;;;;16.60;10.70;;;;;;;-0.75;50.13;95512.84;4990298;28;20045;-77
2022/12/20 04:06:20;;;;;;;15.98;9.77;;;;;;;-0.70;49.96;95519.06;4987550;28;20061;-78
2022/12/20 04:08:46;;;;;;;18.35;11.30;;;;;;;-0.81;49.90;95504.00;4986093;28;20030;-78
2022/12/20 04:11:15;;;;;;;18.92;11.30;;;;;;;-0.78;49.82;95508.03;4991163;28;20049;-77
2022/12/20 04:13:40;;;;;;;21.25;12.10;;;;;;;-0.68;50.09;95518.88;4992564;28;20080;-78
2022/12/20 04:16:06;;;;;;;18.60;12.23;;;;;;;-0.76;50.15;95511.22;4990095;28;20128;-77
2022/12/20 04:18:31;;;;;;;18.60;11.65;;;;;;;-0.69;50.17;95514.66;4993482;28;20048;-77
2022/12/20 04:20:59;;;;;;;19.13;12.02;;;;;;;-0.72;49.73;95512.44;4992577;28;20047;-77
2022/12/20 04:23:24;;;;;;;20.23;12.80;;;;;;;-0.76;49.90;95498.16;4996627;28;20567;-78
2022/12/20 04:25:50;;;;;;;17.52;11.13;;;;;;;-0.66;49.78;95506.41;4993231;28;20048;-74
2022/12/20 04:28:15;;;;;;;19.48;13.98;;;;;;;-0.68;49.87;95508.44;4995609;28;20050;-74
2022/12/20 04:30:40;;;;;;;17.20;11.55;;;;;;;-0.72;50.05;95505.41;4992742;28;20567;-78
2022/12/20 04:33:06;;;;;;;16.40;10.60;;;;;;;-0.86;49.98;95484.69;4995629;28;20021;-76
2022/12/20 04:35:31;;;;;;;19.40;12.45;;;;;;;-0.80;49.91;95496.97;4995417;28;20524;-75
2022/12/20 04:37:57;;;;;;;18.15;11.40;;;;;;;-1.03;50.41;95495.56;4994198;28;20038;-75
2022/12/20 04:40:22;;;;;;;15.80;10.50;;;;;;;-1.03;50.47;95495.56;4993258;28;20041;-75
2022/12/20 04:42:48;;;;;;;14.70;9.73;;;;;;;-0.90;50.48;95493.94;4994208;28;20038;-75
2022/12/20 04:45:13;;;;;;;13.85;9.70;;;;;;;-0.89;50.67;95490.34;4992091;28;20615;-75
2022/12/20 04:47:38;;;;;;;14.65;10.07;;;;;;;-1.02;50.77;95473.63;4990368;28;20258;-75
2022/12/20 04:50:06;;;;;;;16.42;9.70;;;;;;;-1.09;51.03;95488.53;4992669;28;20034;-76
2022/12/20 04:55:15;;;;;;;16.10;10.85;;;;;;;-1.23;50.77;95475.66;4991627;28;20136;-77
2022/12/20 04:57:40;;;;;;;15.13;8.95;;;;;;;-1.10;50.79;95499.97;4995908;28;20490;-76
2022/12/20 05:00:07;;;;;;;17.40;11.15;;;;;;;-1.12;50.99;95501.97;4994231;28;20395;-75
2022/12/20 05:02:32;;;;;;;16.20;10.55;;;;;;;-1.30;50.91;95473.03;4996296;28;20037;-75
2022/12/20 05:04:57;;;;;;;15.65;9.10;;;;;;;-1.24;51.13;95477.44;4993285;28;20637;-76
2022/12/20 05:07:23;;;;;;;15.32;9.27;;;;;;;-1.12;50.84;95491.50;4994921;28;20040;-75
2022/12/20 05:09:48;;;;;;;14.20;9.38;;;;;;;-1.32;50.88;95474.22;4991631;28;20563;-76
2022/12/20 05:12:13;;;;;;;17.27;9.60;;;;;;;-1.20;50.74;95489.09;4996970;28;20084;-75
2022/12/20 05:14:39;;;;;;;15.40;10.57;;;;;;;-1.23;51.12;95486.09;4992650;28;20050;-75
2022/12/20 05:17:04;;;;;;;15.05;10.55;;;;;;;-1.18;50.91;95502.78;4992646;28;20030;-78
2022/12/20 05:19:29;;;;;;;18.40;10.35;;;;;;;-1.25;50.70;95486.28;4993582;28;20552;-78
2022/12/20 05:27:23;;;;;;;16.88;11.13;;;;;;;-1.27;51.10;95503.16;4994635;28;20044;-77
2022/12/20 05:29:48;;;;;;;16.50;11.05;;;;;;;-1.59;51.06;95457.72;4992131;28;20022;-77
2022/12/20 05:32:13;;;;;;;17.02;9.82;;;;;;;-1.49;51.19;95479.81;4993761;28;20088;-76
2022/12/20 05:34:39;;;;;;;19.17;11.88;;;;;;;-1.41;51.32;95484.84;4988496;28;20449;-76
2022/12/20 05:37:04;;;;;;;17.88;11.02;;;;;;;-1.85;50.91;95440.97;4993615;28;20034;-78
2022/12/20 05:39:30;;;;;;;19.60;10.55;;;;;;;-1.38;51.13;95505.34;4993541;28;20124;-76
2022/12/20 05:41:55;;;;;;;22.75;13.80;;;;;;;-1.22;51.02;95511.22;4992406;28;20268;-79
2022/12/20 05:44:21;;;;;;;19.20;10.93;;;;;;;-1.34;50.64;95497.91;4993214;28;20034;-78
2022/12/20 05:46:47;;;;;;;14.70;9.55;;;;;;;-1.34;51.27;95507.56;4994349;28;20061;-76
2022/12/20 05:49:12;;;;;;;18.65;10.45;;;;;;;-1.32;51.22;95510.78;4993428;28;20040;-79
2022/12/20 05:51:38;;;;;;;23.35;13.02;;;;;;;-1.31;51.06;95512.41;4994058;28;20041;-79
2022/12/20 05:54:03;;;;;;;19.38;11.32;;;;;;;-1.39;51.09;95506.34;4993723;28;20476;-76
2022/12/20 05:56:28;;;;;;;18.30;12.07;;;;;;;-1.47;51.15;95508.34;4989961;28;20030;-77
2022/12/20 05:58:54;;;;;;;22.67;11.90;;;;;;;-1.54;51.32;95497.06;4988413;28;20618;-74
2022/12/20 06:01:19;;;;;;;15.15;10.48;;;;;;;-1.69;51.49;95480.75;4988582;28;20044;-77
2022/12/20 06:03:45;;;;;;;15.07;10.40;;;;;;;-1.63;51.71;95486.00;4980070;28;20543;-78
2022/12/20 06:06:10;;;;;;;17.67;10.40;;;;;;;-1.84;51.44;95460.03;4999295;28;20418;-76
2022/12/20 06:08:36;;;;;;;14.07;9.27;;;;;;;-1.50;51.45;95514.75;4994986;28;20025;-77
2022/12/20 06:11:03;;;;;;;19.05;9.60;;;;;;;-1.52;51.63;95511.53;4991124;28;20049;-78
2022/12/20 06:13:29;;;;;;;16.98;10.57;;;;;;;-1.40;51.61;95516.97;4988119;28;20034;-77
2022/12/20 06:15:54;;;;;;;14.20;9.27;;;;;;;-1.68;51.67;95490.19;4990908;28;20092;-75
2022/12/20 06:18:20;;;;;;;15.20;10.07;;;;;;;-1.65;51.54;95484.56;5006679;28;20147;-76
2022/12/20 06:20:50;;;;;;;16.90;9.80;;;;;;;-1.37;51.48;95508.75;4990828;28;20048;-77
2022/12/20 06:23:15;;;;;;;17.88;9.75;;;;;;;-1.40;51.41;95496.09;4987287;28;20030;-75
2022/12/20 06:25:41;;;;;;;16.85;10.43;;;;;;;-1.29;51.59;95511.19;4988114;28;20046;-77
2022/12/20 06:28:06;;;;;;;16.45;10.60;;;;;;;-1.46;51.32;95478.63;4988185;28;20496;-75
2022/12/20 06:30:32;;;;;;;18.95;10.85;;;;;;;-1.34;51.45;95503.13;4989979;28;20034;-75
2022/12/20 06:32:58;;;;;;;16.50;11.25;;;;;;;-1.17;51.24;95514.84;4992196;28;20025;-75
2022/12/20 06:35:24;;;;;;;17.05;10.15;;;;;;;-1.30;51.59;95514.78;4991543;28;20107;-78
2022/12/20 06:37:49;;;;;;;21.80;11.95;;;;;;;-1.39;51.72;95510.75;4990830;28;20045;-76
2022/12/20 06:40:15;;;;;;;20.40;13.75;;;;;;;-1.43;52.10;95493.88;4988961;28;20321;-76
2022/12/20 06:42:40;;;;;;;23.00;12.65;;;;;;;-1.35;52.21;95501.53;4988609;28;20448;-77
2022/12/20 06:45:06;;;;;;;21.83;13.02;;;;;;;-1.25;52.10;95503.75;4987782;28;20029;-75
2022/12/20 06:47:32;;;;;;;24.35;13.82;;;;;;;-1.20;52.20;95504.75;4983963;28;20037;-77
2022/12/20 06:49:57;;;;;;;21.35;14.07;;;;;;;-1.35;51.99;95467.59;4989649;28;20033;-77
2022/12/20 06:52:23;;;;;;;22.13;14.43;;;;;;;-1.16;52.20;95495.53;4978708;28;20437;-78
2022/12/20 06:54:49;;;;;;;21.90;14.88;;;;;;;-1.12;52.38;95498.56;4982579;28;20064;-75
2022/12/20 06:57:14;;;;;;;22.40;14.98;;;;;;;-1.18;52.51;95484.50;4982368;28;20040;-76
2022/12/20 06:59:40;;;;;;;24.67;15.07;;;;;;;-1.18;52.36;95476.66;4981652;28;20698;-76
2022/12/20 07:02:05;;;;;;;27.85;14.77;;;;;;;-1.18;52.19;95484.50;4986866;28;20038;-75
2022/12/20 07:04:31;;;;;;;26.58;17.83;;;;;;;-1.12;52.33;95485.50;4981913;28;20073;-76
2022/12/20 07:06:56;;;;;;;25.38;15.50;;;;;;;-1.14;52.23;95479.66;4985802;28;20095;-77
2022/12/20 07:09:22;;;;;;;21.48;14.80;;;;;;;-1.70;53.22;95472.13;4984680;28;20060;-76
2022/12/20 07:11:48;;;;;;;27.20;17.98;;;;;;;-1.83;53.63;95483.34;4984870;28;20026;-76
2022/12/20 07:14:13;;;;;;;25.30;15.52;;;;;;;-1.94;53.50;95465.63;4986468;28;20042;-76
2022/12/20 07:16:42;;;;;;;24.80;17.10;;;;;;;-1.68;52.84;95464.13;4991049;28;20143;-76
2022/12/20 07:19:10;;;;;;;31.45;18.73;;;;;;;-1.85;53.34;95489.75;4991024;28;20411;-76
2022/12/20 07:21:35;;;;;;;30.52;17.35;;;;;;;-1.74;53.49;95473.53;4993507;28;20034;-75
2022/12/20 07:24:01;;;;;;;32.20;17.45;;;;;;;-1.50;52.76;95440.88;4989377;28;20026;-77
2022/12/20 07:26:26;;;;;;;28.05;17.23;;;;;;;-1.15;52.08;95472.84;4984017;28;20042;-76
2022/12/20 07:28:51;;;;;;;24.05;16.27;;;;;;;-1.04;51.70;95459.19;4982547;28;20580;-77
2022/12/20 07:31:17;;;;;;;111.82;21.23;;;;;;;-0.95;51.18;95471.84;4984070;28;20511;-76
2022/12/20 07:33:42;;;;;;;24.58;15.23;;;;;;;-1.71;51.33;95469.72;4983485;28;20041;-77
2022/12/20 07:36:12;;;;;;;22.77;12.98;;;;;;;-1.90;51.47;95477.28;4984430;28;20494;-77
2022/12/20 07:38:38;;;;;;;20.52;12.77;;;;;;;-3.12;53.58;95478.75;4986073;28;20113;-75
2022/12/20 07:41:09;;;;;;;21.98;14.35;;;;;;;-3.72;56.00;95468.78;4989321;28;20343;-78
2022/12/20 07:43:34;;;;;;;18.33;13.10;;;;;;;-3.32;54.86;95480.38;4988860;28;20034;-77
2022/12/20 07:46:01;;;;;;;23.02;14.68;;;;;;;-3.54;55.75;95485.75;4990080;28;20069;-76
2022/12/20 07:48:26;;;;;;;21.92;13.10;;;;;;;-2.77;54.45;95478.81;4992311;28;20092;-77
2022/12/20 07:50:55;;;;;;;23.50;13.95;;;;;;;-2.11;53.20;95480.00;4986510;28;20468;-76
2022/12/20 07:53:23;;;;;;;19.58;12.93;;;;;;;-1.89;52.48;95463.25;4988132;28;20595;-78
2022/12/20 07:55:49;;;;;;;20.05;11.90;;;;;;;-1.60;51.42;95445.66;4983371;28;20105;-76
2022/12/20 07:58:16;;;;;;;19.90;13.98;;;;;;;-1.33;50.40;95472.63;4991628;28;20530;-76
2022/12/20 08:00:42;;;;;;;21.13;12.25;;;;;;;-1.21;50.55;95466.59;4986719;28;20076;-79
2022/12/20 08:03:13;;;;;;;18.75;13.02;;;;;;;-1.32;50.05;95458.56;4980456;28;20392;-77
2022/12/20 08:05:43;;;;;;;15.25;11.18;;;;;;;-1.40;51.56;95473.41;4985996;28;20067;-76
2022/12/20 08:08:08;;;;;;;17.88;11.48;;;;;;;-1.67;50.94;95460.50;4986278;28;20555;-76
2022/12/20 08:10:36;;;;;;;21.73;13.85;;;;;;;-1.76;51.89;95466.91;4986030;28;20042;-76
2022/12/20 08:13:03;;;;;;;21.90;13.52;;;;;;;-1.78;51.85;95469.69;4990152;28;20255;-79
2022/12/20 08:15:28;;;;;;;19.80;11.95;;;;;;;-1.73;52.00;95448.25;4987564;28;20434;-77
2022/12/20 08:17:54;;;;;;;17.15;12.05;;;;;;;-1.51;51.02;95445.28;4990245;28;20348;-76
2022/12/20 08:20:19;;;;;;;27.20;16.00;;;;;;;-1.66;52.54;95464.72;4994812;28;20061;-76
2022/12/20 08:22:44;;;;;;;22.75;14.10;;;;;;;-2.03;52.87;95453.75;4990144;28;20642;-78
2022/12/20 08:25:10;;;;;;;25.85;14.15;;;;;;;-1.77;52.55;95458.28;4992716;28;20034;-77
2022/12/20 08:27:36;;;;;;;21.83;13.45;;;;;;;-1.20;51.48;95447.31;4990273;28;20713;-75
2022/12/20 08:30:02;;;;;;;19.65;11.77;;;;;;;-1.56;51.06;95452.13;4992573;28;20022;-76
2022/12/20 08:32:28;;;;;;;21.88;12.18;;;;;;;-2.46;52.51;95432.31;4990463;28;20070;-77
2022/12/20 08:34:54;;;;;;;18.98;11.98;;;;;;;-2.34;52.67;95427.38;4991625;28;20046;-77
2022/12/20 08:37:19;;;;;;;19.98;12.30;;;;;;;-1.70;51.14;95440.81;4991472;28;20052;-76
2022/12/20 08:39:45;;;;;;;20.80;10.85;;;;;;;-1.84;50.93;95429.56;4994035;28;20034;-77
2022/12/20 08:42:11;;;;;;;19.08;11.38;;;;;;;-1.97;52.10;95454.78;4994093;28;20046;-76
2022/12/20 08:44:37;;;;;;;21.13;14.32;;;;;;;-1.80;51.89;95429.19;4997630;28;20099;-76
2022/12/20 08:47:02;;;;;;;25.42;13.40;;;;;;;-2.40;51.99;95415.13;4989373;28;21206;-76
2022/12/20 08:49:28;;;;;;;24.85;13.95;;;;;;;-1.99;52.05;95426.28;4988986;28;20045;-75
2022/12/20 08:51:53;;;;;;;24.75;15.00;;;;;;;-2.28;53.21;95424.78;4993433;28;20049;-76
2022/12/20 08:54:19;;;;;;;24.40;14.35;;;;;;;-1.87;52.75;95435.16;4991928;28;20038;-75
2022/12/20 08:56:44;;;;;;;22.58;13.93;;;;;;;-2.51;53.75;95462.56;4992516;28;20067;-75
2022/12/20 08:59:09;;;;;;;25.02;14.52;;;;;;;-1.90;52.48;95427.72;4987648;28;20537;-77
2022/12/20 09:01:35;;;;;;;23.75;13.73;;;;;;;-1.20;50.77;95442.09;4993535;28;20041;-76
2022/12/20 09:04:00;;;;;;;21.27;13.13;;;;;;;-1.78;51.58;95434.97;4992500;28;20108;-76
2022/12/20 09:06:26;;;;;;;22.77;12.93;;;;;;;-1.14;50.74;95425.66;4986272;28;20112;-77
2022/12/20 09:08:51;;;;;;;19.40;13.65;;;;;;;-0.72;49.84;95407.91;4994586;28;20053;-77
2022/12/20 09:11:22;;;;;;;21.00;16.10;;;;;;;-0.29;48.77;95411.66;4988662;28;20040;-75
2022/12/20 09:13:50;;;;;;;18.65;13.32;;;;;;;-0.91;49.33;95425.22;4991602;28;20492;-78
2022/12/20 09:16:17;;;;;;;22.95;13.93;;;;;;;-1.87;51.47;95414.31;4993192;28;20037;-75
2022/12/20 09:18:43;;;;;;;18.17;13.32;;;;;;;-1.12;50.54;95400.13;4995168;28;20164;-78
2022/12/20 09:21:10;;;;;;;22.13;13.38;;;;;;;-0.80;49.57;95401.09;4993522;28;20670;-75
2022/12/20 09:23:36;;;;;;;22.15;14.23;;;;;;;-1.10;50.40;95415.59;4992180;28;20025;-76
2022/12/20 09:26:04;;;;;;;27.83;14.10;;;;;;;-1.14;50.92;95412.59;4989571;28;20467;-76
2022/12/20 09:28:31;;;;;;;19.38;13.57;;;;;;;-1.53;51.75;95410.75;4985743;28;20084;-76
2022/12/20 09:30:59;;;;;;;20.80;13.82;;;;;;;-1.88;51.82;95399.66;4982419;28;20625;-76
2022/12/20 09:33:24;;;;;;;22.23;14.73;;;;;;;-1.56;51.99;95399.94;4980008;28;20061;-75
2022/12/20 09:35:49;;;;;;;30.25;16.52;;;;;;;-1.76;51.67;95407.72;5001817;28;20964;-75
2022/12/20 09:38:15;;;;;;;20.88;12.95;;;;;;;-1.03;50.47;95398.94;4984314;28;20044;-76
2022/12/20 09:40:55;;;;;;;22.10;12.75;;;;;;;-0.38;49.16;95399.78;4992389;28;20173;-77
2022/12/20 09:43:22;;;;;;;22.38;13.75;;;;;;;-0.07;48.27;95378.94;4989333;28;20479;-76
2022/12/20 09:45:51;;;;;;;22.20;14.63;;;;;;;-0.75;48.99;95375.16;4989887;28;20048;-79
2022/12/20 09:48:34;;;;;;;24.40;14.55;;;;;;;-0.39;49.01;95384.31;5004689;28;20487;-75
2022/12/20 09:51:08;;;;;;;21.50;13.32;;;;;;;-0.89;49.11;95384.03;4989308;28;20033;-75
2022/12/20 09:53:43;;;;;;;24.90;14.00;;;;;;;-1.01;50.30;95383.03;4989030;28;20125;-74
2022/12/20 09:56:19;;;;;;;23.08;14.00;;;;;;;-0.55;49.35;95372.50;4987481;28;20045;-76
2022/12/20 09:59:13;;;;;;;24.25;12.93;;;;;;;-0.55;48.20;95287.06;4984364;28;20470;-78
2022/12/20 10:01:43;;;;;;;23.65;13.07;;;;;;;0.23;47.50;95365.31;4985193;28;20042;-76
2022/12/20 10:04:30;;;;;;;23.90;14.60;;;;;;;0.07;47.32;95340.44;4988001;28;20050;-76
2022/12/20 10:07:39;;;;;;;25.95;15.15;;;;;;;-0.18;47.41;95340.38;4987988;28;20038;-75
2022/12/20 10:10:24;;;;;;;27.00;14.15;;;;;;;-1.21;50.45;95346.50;4942882;28;21010;-75
2022/12/20 10:13:04;;;;;;;26.13;14.07;;;;;;;-1.32;50.47;95336.69;4927780;28;20044;-76
2022/12/20 10:15:48;;;;;;;24.63;15.80;;;;;;;-0.93;50.62;95335.03;4960305;28;20398;-74
2022/12/20 10:18:16;;;;;;;26.20;15.15;;;;;;;-1.52;51.56;95333.28;4982066;28;20710;-75
2022/12/20 10:20:45;;;;;;;23.73;14.40;;;;;;;-1.61;51.32;95319.63;4973813;28;20157;-76
2022/12/20 10:23:35;;;;;;;30.85;14.57;;;;;;;-1.64;51.86;95314.81;4985015;28;20425;-75
2022/12/20 10:26:08;;;;;;;26.05;14.57;;;;;;;-1.84;52.00;95309.56;4986003;28;20091;-76
2022/12/20 10:28:34;;;;;;;25.23;14.50;;;;;;;-1.42;51.50;95307.59;5004589;28;20048;-75
2022/12/20 10:31:20;;;;;;;22.75;15.65;;;;;;;-0.96;50.44;95286.59;4986538;28;20543;-76
2022/12/20 10:33:46;;;;;;;24.48;14.52;;;;;;;-0.64;49.92;95280.47;4991350;28;20091;-76
2022/12/20 10:36:20;;;;;;;22.58;14.65;;;;;;;-0.96;49.69;95271.72;4985057;28;20033;-75
2022/12/20 10:38:49;;;;;;;24.58;15.90;;;;;;;-0.45;49.51;95284.00;4989500;28;20515;-75
2022/12/20 10:41:18;;;;;;;21.45;14.27;;;;;;;-0.28;49.43;95264.19;5005236;28;20469;-75
2022/12/20 10:43:47;;;;;;;24.17;15.07;;;;;;;0.14;47.77;95267.94;4988847;28;20042;-76
2022/12/20 10:46:17;;;;;;;22.63;13.77;;;;;;;0.20;49.03;95261.84;4986810;28;20042;-78
2022/12/20 10:48:45;;;;;;;18.52;12.43;;;;;;;0.20;47.12;95250.59;4990247;28;20037;-76
2022/12/20 10:51:14;;;;;;;21.33;12.65;;;;;;;-0.27;48.27;95255.34;4990946;28;20109;-76
2022/12/20 10:54:02;;;;;;;20.83;13.02;;;;;;;-0.47;48.73;95259.06;4992624;28;20022;-76
2022/12/20 10:56:35;;;;;;;18.38;12.75;;;;;;;-0.28;48.30;95243.28;4981720;28;21527;-76
2022/12/20 10:59:20;;;;;;;18.92;12.48;;;;;;;-0.17;47.87;95253.06;4998606;28;20439;-75
2022/12/20 11:01:47;;;;;;;18.13;12.30;;;;;;;-0.16;46.71;95225.91;4986569;28;20045;-77
2022/12/20 11:04:29;;;;;;;19.63;11.27;;;;;;;0.06;46.94;95241.22;4988187;28;20045;-79
2022/12/20 11:06:55;;;;;;;24.48;12.88;;;;;;;0.52;46.04;95241.66;5003625;28;20483;-77
2022/12/20 11:09:28;;;;;;;18.98;11.25;;;;;;;0.59;46.25;95234.56;4991575;28;20037;-75
2022/12/20 11:11:57;;;;;;;16.45;12.02;;;;;;;1.15;46.61;95212.56;4980909;28;20017;-77
2022/12/20 11:14:22;;;;;;;18.98;11.77;;;;;;;1.53;45.69;95223.56;4987086;28;20061;-76
2022/12/20 11:16:51;;;;;;;20.98;11.40;;;;;;;1.68;44.49;95208.25;4986697;28;20033;-77
2022/12/20 11:19:39;;;;;;;21.15;11.48;;;;;;;1.88;44.49;95225.53;4985710;28;20037;-77
2022/12/20 11:22:19;;;;;;;19.15;11.65;;;;;;;2.11;43.02;95217.72;4987544;28;20500;-77
2022/12/20 11:24:59;;;;;;;18.80;10.90;;;;;;;1.24;42.81;95164.06;4985679;28;20042;-78
2022/12/20 11:27:56;;;;;;;16.38;9.85;;;;;;;1.17;43.75;95210.56;4987330;28;20035;-77
2022/12/20 11:30:47;;;;;;;23.02;11.77;;;;;;;1.62;43.20;95205.69;4986582;28;20080;-75
2022/12/20 11:33:24;;;;;;;24.20;12.50;;;;;;;1.72;42.85;95205.97;4993599;28;20068;-76
2022/12/20 11:35:59;;;;;;;18.77;11.48;;;;;;;0.82;43.74;95209.53;4989793;28;20053;-77